createdAt,value
2023-02-18T00:00:03.933Z,71.50
2023-02-18T00:02:30.454Z,71.60
2023-02-18T00:04:56.979Z,71.60
2023-02-18T00:07:23.468Z,71.60
2023-02-18T00:09:49.964Z,71.60
2023-02-18T00:12:16.446Z,71.60
2023-02-18T00:14:42.920Z,71.50
2023-02-18T00:17:10.731Z,71.60
2023-02-18T00:19:37.211Z,71.60
2023-02-18T00:22:03.678Z,71.60
2023-02-18T00:24:30.142Z,71.70
2023-02-18T00:26:56.606Z,71.60
2023-02-18T00:29:23.089Z,71.60
2023-02-18T00:31:49.649Z,71.60
2023-02-18T00:34:16.169Z,71.60
2023-02-18T00:36:42.662Z,71.60
2023-02-18T00:39:09.147Z,71.60
2023-02-18T00:41:35.631Z,71.60
2023-02-18T00:44:02.133Z,71.70
2023-02-18T00:46:28.628Z,71.70
2023-02-18T00:48:58.819Z,71.70
2023-02-18T00:51:25.291Z,71.60
2023-02-18T00:53:51.803Z,71.70
2023-02-18T00:56:18.295Z,71.70
2023-02-18T00:58:44.786Z,71.80
2023-02-18T01:01:11.263Z,71.70
2023-02-18T01:03:37.740Z,71.70
2023-02-18T01:06:04.215Z,71.70
2023-02-18T01:08:30.718Z,71.70
2023-02-18T01:10:57.192Z,71.70
2023-02-18T01:13:23.716Z,71.70
2023-02-18T01:15:50.215Z,71.60
2023-02-18T01:18:16.702Z,71.70
2023-02-18T01:20:46.841Z,71.70
2023-02-18T01:23:13.313Z,71.70
2023-02-18T01:25:39.802Z,71.60
2023-02-18T01:28:06.258Z,71.60
2023-02-18T01:30:32.796Z,71.70
2023-02-18T01:32:59.287Z,71.70
2023-02-18T01:35:25.767Z,71.70
2023-02-18T01:37:52.250Z,71.60
2023-02-18T01:40:18.713Z,71.60
2023-02-18T01:42:45.189Z,71.70
2023-02-18T01:45:16.838Z,71.70
2023-02-18T01:47:43.308Z,71.80
2023-02-18T01:50:09.806Z,71.80
2023-02-18T01:52:36.267Z,71.80
2023-02-18T01:55:02.765Z,71.80
2023-02-18T01:57:29.229Z,71.80
2023-02-18T01:59:55.726Z,71.70
2023-02-18T02:02:22.215Z,71.80
2023-02-18T02:04:48.771Z,71.80
2023-02-18T02:07:15.345Z,71.90
2023-02-18T02:09:41.840Z,71.80
2023-02-18T02:12:08.320Z,71.80
2023-02-18T02:14:34.846Z,71.90
2023-02-18T02:17:01.313Z,71.90
2023-02-18T02:19:27.797Z,71.80
2023-02-18T02:21:54.270Z,72.00
2023-02-18T02:24:20.758Z,71.90
2023-02-18T02:26:47.244Z,72.00
2023-02-18T02:29:13.719Z,72.00
2023-02-18T02:31:40.933Z,71.90
2023-02-18T02:34:07.430Z,71.90
2023-02-18T02:36:33.914Z,71.90
2023-02-18T02:39:00.393Z,71.90
2023-02-18T02:41:26.873Z,71.90
2023-02-18T02:43:53.342Z,71.90
2023-02-18T02:46:19.833Z,71.80
2023-02-18T02:48:46.317Z,71.80
2023-02-18T02:51:12.790Z,71.80
2023-02-18T02:53:39.270Z,71.80
2023-02-18T02:56:05.946Z,71.90
2023-02-18T02:58:32.549Z,71.90
2023-02-18T03:00:59.057Z,71.80
2023-02-18T03:03:25.574Z,71.80
2023-02-18T03:05:52.222Z,71.80
2023-02-18T03:08:18.703Z,71.90
2023-02-18T03:10:45.212Z,71.90
2023-02-18T03:13:11.678Z,71.90
2023-02-18T03:15:38.146Z,71.90
2023-02-18T03:18:04.615Z,71.90
2023-02-18T03:20:31.090Z,71.80
2023-02-18T03:22:57.562Z,71.90
2023-02-18T03:25:28.923Z,71.80
2023-02-18T03:27:55.400Z,71.80
2023-02-18T03:30:21.873Z,71.60
2023-02-18T03:32:48.341Z,71.70
2023-02-18T03:35:14.846Z,71.90
2023-02-18T03:37:41.342Z,71.90
2023-02-18T03:40:07.825Z,71.80
2023-02-18T03:42:34.931Z,71.80
2023-02-18T03:45:01.399Z,71.80
2023-02-18T03:47:27.860Z,71.80
2023-02-18T03:49:54.321Z,71.80
2023-02-18T03:52:20.803Z,71.80
2023-02-18T03:54:47.266Z,71.80
2023-02-18T03:57:13.750Z,71.80
2023-02-18T03:59:40.226Z,71.80
2023-02-18T04:02:06.709Z,71.80
2023-02-18T04:04:33.221Z,71.80
2023-02-18T04:06:59.753Z,71.80
2023-02-18T04:09:26.222Z,71.70
2023-02-18T04:11:52.686Z,71.70
2023-02-18T04:14:19.139Z,71.70
2023-02-18T04:16:45.652Z,71.70
2023-02-18T04:19:12.145Z,71.80
2023-02-18T04:21:38.631Z,71.80
2023-02-18T04:24:05.124Z,71.80
2023-02-18T04:26:31.587Z,71.80
2023-02-18T04:28:58.066Z,71.80
2023-02-18T04:31:24.621Z,71.70
2023-02-18T04:33:51.163Z,71.70
2023-02-18T04:36:17.657Z,71.70
2023-02-18T04:38:44.146Z,71.80
2023-02-18T04:41:10.647Z,71.80
2023-02-18T04:43:37.140Z,71.80
2023-02-18T04:46:03.672Z,71.80
2023-02-18T04:48:30.183Z,71.80
2023-02-18T04:50:56.648Z,71.90
2023-02-18T04:53:23.124Z,71.90
2023-02-18T04:55:49.599Z,71.80
2023-02-18T04:58:16.082Z,71.90
2023-02-18T05:00:42.579Z,72.00
2023-02-18T05:03:09.060Z,71.90
2023-02-18T05:05:35.549Z,72.00
2023-02-18T05:08:02.023Z,72.00
2023-02-18T05:10:28.535Z,72.00
2023-02-18T05:12:55.011Z,71.90
2023-02-18T05:15:21.511Z,72.00
2023-02-18T05:17:47.993Z,71.90
2023-02-18T05:20:14.501Z,72.00
2023-02-18T05:22:40.987Z,72.00
2023-02-18T05:25:07.452Z,72.00
2023-02-18T05:27:33.940Z,72.10
2023-02-18T05:30:00.471Z,72.00
2023-02-18T05:32:26.984Z,72.10
2023-02-18T05:34:53.475Z,72.10
2023-02-18T05:37:19.949Z,72.00
2023-02-18T05:39:46.428Z,72.10
2023-02-18T05:42:12.902Z,72.10
2023-02-18T05:44:39.372Z,72.10
2023-02-18T05:47:05.856Z,72.00
2023-02-18T05:49:32.346Z,72.10
2023-02-18T05:51:58.824Z,72.20
2023-02-18T05:54:25.308Z,72.10
2023-02-18T05:56:51.789Z,72.20
2023-02-18T05:59:18.290Z,72.20
2023-02-18T06:01:44.781Z,72.10
2023-02-18T06:04:11.257Z,72.20
2023-02-18T06:06:37.746Z,72.30
2023-02-18T06:09:04.215Z,72.10
2023-02-18T06:11:30.691Z,72.20
2023-02-18T06:13:57.185Z,72.20
2023-02-18T06:16:23.712Z,72.20
2023-02-18T06:18:50.282Z,72.30
2023-02-18T06:21:16.782Z,72.30
2023-02-18T06:23:43.262Z,72.30
2023-02-18T06:26:10.100Z,72.30
2023-02-18T06:28:36.695Z,72.40
2023-02-18T06:31:03.305Z,72.30
2023-02-18T06:33:29.809Z,72.40
2023-02-18T06:35:56.315Z,72.30
2023-02-18T06:38:22.776Z,72.30
2023-02-18T06:40:49.274Z,72.30
2023-02-18T06:43:15.763Z,72.30
2023-02-18T06:45:42.257Z,72.40
2023-02-18T06:48:08.721Z,72.50
2023-02-18T06:50:35.226Z,72.40
2023-02-18T06:53:01.706Z,72.50
2023-02-18T06:55:28.170Z,72.50
2023-02-18T06:57:54.631Z,72.50
2023-02-18T07:00:21.100Z,72.60
2023-02-18T07:02:47.586Z,72.50
2023-02-18T07:05:15.134Z,72.60
2023-02-18T07:07:41.622Z,72.60
2023-02-18T07:10:08.106Z,72.50
2023-02-18T07:12:34.579Z,72.50
2023-02-18T07:15:01.046Z,72.60
2023-02-18T07:17:27.527Z,72.70
2023-02-18T07:19:53.980Z,72.50
2023-02-18T07:22:20.467Z,72.60
2023-02-18T07:24:46.935Z,72.70
2023-02-18T07:27:13.406Z,72.70
2023-02-18T07:29:39.867Z,72.60
2023-02-18T07:32:06.366Z,72.60
2023-02-18T07:34:32.860Z,72.60
2023-02-18T07:36:59.342Z,72.60
2023-02-18T07:39:25.819Z,72.70
2023-02-18T07:41:52.302Z,72.80
2023-02-18T07:44:18.758Z,72.70
2023-02-18T07:46:47.292Z,72.80
2023-02-18T07:49:14.644Z,72.60
2023-02-18T07:51:41.132Z,72.70
2023-02-18T07:54:07.637Z,72.80
2023-02-18T07:56:34.104Z,72.80
2023-02-18T07:59:05.264Z,72.80
2023-02-18T08:01:31.745Z,72.80
2023-02-18T08:03:58.245Z,72.80
2023-02-18T08:06:24.753Z,72.80
2023-02-18T08:08:51.230Z,72.80
2023-02-18T08:11:19.711Z,72.80
2023-02-18T08:13:47.266Z,72.80
2023-02-18T08:16:13.963Z,72.80
2023-02-18T08:18:40.450Z,72.80
2023-02-18T08:21:06.929Z,72.80
2023-02-18T08:23:33.415Z,72.80
2023-02-18T08:25:59.917Z,72.80
2023-02-18T08:28:26.382Z,72.60
2023-02-18T08:30:52.915Z,72.80
2023-02-18T08:33:19.404Z,72.70
2023-02-18T08:35:45.894Z,72.70
2023-02-18T08:38:12.366Z,72.70
2023-02-18T08:40:38.872Z,72.70
2023-02-18T08:43:05.298Z,72.80
2023-02-18T08:45:31.778Z,72.70
2023-02-18T08:48:16.115Z,72.70
2023-02-18T08:50:44.722Z,72.70
2023-02-18T08:53:17.200Z,72.60
2023-02-18T08:55:43.685Z,72.70
2023-02-18T08:58:10.167Z,72.60
2023-02-18T09:00:41.300Z,72.60
2023-02-18T09:03:07.801Z,72.60
2023-02-18T09:05:34.323Z,72.70
2023-02-18T09:08:00.820Z,72.60
2023-02-18T09:10:27.294Z,72.50
2023-02-18T09:12:53.795Z,72.60
2023-02-18T09:15:20.282Z,72.40
2023-02-18T09:17:46.832Z,72.50
2023-02-18T09:20:13.384Z,72.50
2023-02-18T09:22:39.885Z,72.50
2023-02-18T09:27:50.222Z,72.50
2023-02-18T09:30:17.274Z,72.40
2023-02-18T09:32:43.792Z,72.40
2023-02-18T09:35:10.254Z,72.40
2023-02-18T09:37:36.741Z,72.30
2023-02-18T09:40:03.220Z,72.30
2023-02-18T09:42:29.710Z,72.30
2023-02-18T09:44:56.202Z,72.30
2023-02-18T09:47:22.702Z,72.20
2023-02-18T09:49:49.181Z,72.10
2023-02-18T09:52:15.667Z,72.20
2023-02-18T09:54:42.127Z,72.00
2023-02-18T09:57:11.190Z,72.10
2023-02-18T09:59:37.680Z,72.00
2023-02-18T10:02:04.167Z,72.00
2023-02-18T10:04:35.256Z,72.00
2023-02-18T10:07:05.261Z,71.90
2023-02-18T10:09:31.725Z,71.90
2023-02-18T10:11:58.208Z,71.90
2023-02-18T10:14:24.693Z,71.80
2023-02-18T10:16:51.174Z,71.80
2023-02-18T10:19:17.636Z,71.80
2023-02-18T10:21:44.095Z,71.60
2023-02-18T10:24:10.575Z,71.60
2023-02-18T10:26:37.052Z,71.60
2023-02-18T10:29:03.570Z,71.60
2023-02-18T10:31:30.103Z,71.60
2023-02-18T10:33:56.642Z,71.60
2023-02-18T10:36:23.131Z,71.50
2023-02-18T10:38:49.609Z,71.60
2023-02-18T10:41:16.095Z,71.50
2023-02-18T10:43:42.586Z,71.50
2023-02-18T10:46:09.070Z,71.50
2023-02-18T10:48:41.293Z,71.50
2023-02-18T10:51:08.024Z,71.40
2023-02-18T10:53:34.654Z,71.30
2023-02-18T10:56:01.192Z,71.40
2023-02-18T10:58:27.738Z,71.30
2023-02-18T11:00:54.234Z,71.40
2023-02-18T11:03:20.719Z,71.30
2023-02-18T11:05:47.196Z,71.30
2023-02-18T11:08:13.676Z,71.30
2023-02-18T11:10:40.150Z,71.30
2023-02-18T11:13:06.617Z,71.30
2023-02-18T11:15:33.114Z,71.20
2023-02-18T11:17:59.591Z,71.30
2023-02-18T11:20:26.079Z,71.30
2023-02-18T11:22:52.554Z,71.30
2023-02-18T11:25:19.020Z,71.20
2023-02-18T11:27:45.497Z,71.20
2023-02-18T11:30:12.016Z,71.30
2023-02-18T11:32:38.518Z,71.20
2023-02-18T11:35:05.003Z,71.30
2023-02-18T11:37:31.481Z,71.40
2023-02-18T11:39:57.972Z,71.30
2023-02-18T11:42:24.451Z,71.30
2023-02-18T11:44:50.931Z,71.30
2023-02-18T11:47:17.413Z,71.30
2023-02-18T11:49:43.914Z,71.30
2023-02-18T11:52:10.390Z,71.30
2023-02-18T11:54:36.886Z,71.30
2023-02-18T11:57:03.374Z,71.20
2023-02-18T11:59:29.902Z,71.20
2023-02-18T12:01:56.411Z,71.30
2023-02-18T12:04:22.920Z,71.30
2023-02-18T12:06:49.400Z,71.30
2023-02-18T12:09:15.907Z,71.30
2023-02-18T12:11:42.382Z,71.40
2023-02-18T12:14:08.857Z,71.40
2023-02-18T12:16:35.391Z,71.30
2023-02-18T12:19:01.905Z,71.40
2023-02-18T12:21:28.395Z,71.40
2023-02-18T12:23:54.861Z,71.40
2023-02-18T12:26:21.333Z,71.40
2023-02-18T12:28:47.822Z,71.40
2023-02-18T12:31:14.334Z,71.40
2023-02-18T12:33:40.841Z,71.30
2023-02-18T12:36:07.713Z,71.40
2023-02-18T12:38:34.274Z,71.30
2023-02-18T12:41:00.789Z,71.30
2023-02-18T12:43:27.293Z,71.40
2023-02-18T12:45:53.787Z,71.40
2023-02-18T12:48:20.256Z,71.40
2023-02-18T12:50:46.751Z,71.40
2023-02-18T12:53:13.232Z,71.40
2023-02-18T12:55:39.723Z,71.40
2023-02-18T12:58:06.202Z,71.50
2023-02-18T13:00:32.691Z,71.40
2023-02-18T13:02:59.187Z,71.40
2023-02-18T13:05:25.665Z,71.50
2023-02-18T13:07:52.163Z,71.50
2023-02-18T13:10:18.673Z,71.60
2023-02-18T13:12:45.130Z,71.60
2023-02-18T13:15:11.603Z,71.50
2023-02-18T13:17:38.070Z,71.60
2023-02-18T13:20:04.576Z,71.60
2023-02-18T13:22:31.046Z,71.70
2023-02-18T13:24:57.503Z,71.70
2023-02-18T13:27:23.983Z,71.60
2023-02-18T13:29:50.453Z,71.60
2023-02-18T13:32:19.317Z,71.70
2023-02-18T13:34:45.895Z,71.60
2023-02-18T13:37:12.368Z,71.60
2023-02-18T13:39:41.404Z,71.70
2023-02-18T13:42:07.898Z,71.60
2023-02-18T13:44:34.368Z,71.60
2023-02-18T13:47:00.847Z,71.70
2023-02-18T13:49:27.340Z,71.70
2023-02-18T13:51:53.834Z,71.70
2023-02-18T13:54:20.328Z,71.70
2023-02-18T13:56:46.841Z,71.70
2023-02-18T13:59:13.319Z,71.70
2023-02-18T14:01:39.818Z,71.70
2023-02-18T14:04:06.290Z,71.70
2023-02-18T14:06:32.783Z,71.80
2023-02-18T14:08:59.260Z,71.80
2023-02-18T14:11:25.754Z,71.90
2023-02-18T14:13:52.229Z,71.80
2023-02-18T14:16:18.723Z,71.90
2023-02-18T14:18:45.179Z,71.80
2023-02-18T14:21:11.662Z,71.90
2023-02-18T14:23:38.139Z,71.90
2023-02-18T14:26:04.641Z,71.80
2023-02-18T14:28:31.112Z,71.80
2023-02-18T14:30:57.694Z,71.80
2023-02-18T14:33:24.268Z,71.90
2023-02-18T14:35:50.765Z,71.80
2023-02-18T14:38:17.243Z,72.00
2023-02-18T14:40:43.743Z,71.90
2023-02-18T14:43:10.205Z,71.90
2023-02-18T14:45:36.696Z,72.00
2023-02-18T14:48:03.184Z,71.90
2023-02-18T14:53:20.500Z,72.00
2023-02-18T14:55:46.985Z,71.90
2023-02-18T14:58:13.502Z,72.00
2023-02-18T15:00:39.984Z,72.00
2023-02-18T15:03:06.469Z,72.00
2023-02-18T15:05:33.136Z,72.00
2023-02-18T15:07:59.623Z,72.00
2023-02-18T15:10:26.100Z,72.10
2023-02-18T15:12:52.587Z,72.00
2023-02-18T15:15:19.051Z,72.10
2023-02-18T15:17:45.524Z,72.10
2023-02-18T15:20:11.985Z,72.10
2023-02-18T15:22:38.450Z,72.10
2023-02-18T15:25:04.910Z,72.20
2023-02-18T15:27:31.374Z,72.10
2023-02-18T15:29:59.475Z,72.10
2023-02-18T15:32:26.096Z,72.20
2023-02-18T15:34:53.478Z,72.10
2023-02-18T15:37:19.952Z,72.30
2023-02-18T15:39:46.414Z,72.20
2023-02-18T15:42:12.879Z,72.20
2023-02-18T15:44:39.369Z,72.30
2023-02-18T15:47:05.841Z,72.30
2023-02-18T15:49:32.316Z,72.30
2023-02-18T15:51:58.806Z,72.30
2023-02-18T15:54:29.573Z,72.30
2023-02-18T15:56:56.079Z,72.40
2023-02-18T15:59:22.576Z,72.40
2023-02-18T16:01:49.118Z,72.30
2023-02-18T16:04:15.596Z,72.30
2023-02-18T16:06:42.082Z,72.40
2023-02-18T16:09:08.566Z,72.40
2023-02-18T16:11:35.113Z,72.40
2023-02-18T16:14:01.574Z,72.40
2023-02-18T16:16:28.122Z,72.40
2023-02-18T16:18:54.611Z,72.40
2023-02-18T16:21:21.077Z,72.40
2023-02-18T16:23:47.567Z,72.50
2023-02-18T16:26:14.021Z,72.40
2023-02-18T16:28:40.496Z,72.40
2023-02-18T16:31:07.101Z,72.40
2023-02-18T16:33:33.601Z,72.50
2023-02-18T16:36:00.095Z,72.50
2023-02-18T16:38:29.570Z,72.50
2023-02-18T16:40:56.054Z,72.60
2023-02-18T16:43:22.542Z,72.50
2023-02-18T16:45:49.970Z,72.60
2023-02-18T16:48:16.617Z,72.50
2023-02-18T16:50:43.091Z,72.50
2023-02-18T16:53:09.584Z,72.50
2023-02-18T16:55:36.064Z,72.50
2023-02-18T16:58:02.535Z,72.50
2023-02-18T17:00:29.014Z,72.50
2023-02-18T17:02:55.532Z,72.50
2023-02-18T17:05:37.320Z,72.50
2023-02-18T17:08:03.833Z,72.50
2023-02-18T17:10:30.282Z,72.60
2023-02-18T17:12:56.765Z,72.60
2023-02-18T17:15:23.217Z,72.50
2023-02-18T17:17:49.712Z,72.50
2023-02-18T17:20:16.202Z,72.60
2023-02-18T17:22:42.695Z,72.60
2023-02-18T17:25:09.181Z,72.50
2023-02-18T17:27:35.652Z,72.60
2023-02-18T17:30:02.218Z,72.60
2023-02-18T17:32:28.740Z,72.60
2023-02-18T17:34:55.221Z,72.50
2023-02-18T17:37:21.683Z,72.50
2023-02-18T17:39:48.147Z,72.40
2023-02-18T17:42:14.650Z,72.50
2023-02-18T17:44:41.151Z,72.50
2023-02-18T17:47:07.616Z,72.50
2023-02-18T17:49:34.102Z,72.50
2023-02-18T17:52:00.571Z,72.50
2023-02-18T17:54:28.265Z,72.50
2023-02-18T17:56:54.889Z,72.50
2023-02-18T17:59:21.358Z,72.40
2023-02-18T18:01:47.843Z,72.40
2023-02-18T18:04:14.382Z,72.40
2023-02-18T18:06:40.861Z,72.40
2023-02-18T18:09:07.328Z,72.30
2023-02-18T18:11:33.787Z,72.40
2023-02-18T18:14:00.269Z,72.40
2023-02-18T18:16:26.784Z,72.30
2023-02-18T18:18:53.324Z,72.30
2023-02-18T18:21:19.812Z,72.30
2023-02-18T18:23:46.289Z,72.30
2023-02-18T18:26:12.777Z,72.30
2023-02-18T18:28:39.253Z,72.30
2023-02-18T18:31:05.762Z,72.30
2023-02-18T18:33:32.245Z,72.30
2023-02-18T18:35:58.737Z,72.30
2023-02-18T18:38:25.218Z,72.30
2023-02-18T18:40:51.964Z,72.30
2023-02-18T18:43:18.435Z,72.30
2023-02-18T18:45:45.017Z,72.30
2023-02-18T18:48:11.545Z,72.30
2023-02-18T18:50:38.021Z,72.40
2023-02-18T18:53:04.492Z,72.50
2023-02-18T18:55:30.960Z,72.40
2023-02-18T18:57:57.429Z,72.40
2023-02-18T19:00:23.900Z,72.40
2023-02-18T19:02:50.380Z,72.40
2023-02-18T19:05:16.868Z,72.40
2023-02-18T19:07:43.340Z,72.40
2023-02-18T19:10:09.830Z,72.40
2023-02-18T19:12:36.321Z,72.30
2023-02-18T19:15:05.705Z,72.40
2023-02-18T19:17:32.191Z,72.40
2023-02-18T19:19:58.662Z,72.40
2023-02-18T19:22:25.148Z,72.40
2023-02-18T19:24:51.638Z,72.40
2023-02-18T19:27:18.116Z,72.30
2023-02-18T19:29:44.567Z,72.40
2023-02-18T19:32:11.106Z,72.30
2023-02-18T19:34:37.599Z,72.30
2023-02-18T19:37:04.063Z,72.30
2023-02-18T19:39:30.550Z,72.20
2023-02-18T19:41:57.018Z,72.30
2023-02-18T19:44:23.490Z,72.30
2023-02-18T19:46:49.952Z,72.30
2023-02-18T19:49:16.417Z,72.40
2023-02-18T19:51:42.885Z,72.40
2023-02-18T19:54:09.353Z,72.40
2023-02-18T19:56:35.848Z,72.40
2023-02-18T19:59:02.325Z,72.40
2023-02-18T20:01:28.827Z,72.40
2023-02-18T20:03:55.296Z,72.40
2023-02-18T20:06:21.828Z,72.40
2023-02-18T20:08:48.304Z,72.40
2023-02-18T20:11:14.776Z,72.40
2023-02-18T20:13:41.248Z,72.30
2023-02-18T20:16:07.753Z,72.40
2023-02-18T20:18:34.243Z,72.50
2023-02-18T20:21:00.717Z,72.40
2023-02-18T20:23:27.193Z,72.50
2023-02-18T20:25:53.669Z,72.50
2023-02-18T20:28:20.135Z,72.50
2023-02-18T20:30:47.781Z,72.50
2023-02-18T20:33:14.259Z,72.50
2023-02-18T20:35:40.745Z,72.50
2023-02-18T20:38:07.228Z,72.50
2023-02-18T20:40:35.787Z,72.40
2023-02-18T20:43:02.272Z,72.50
2023-02-18T20:45:28.753Z,72.50
2023-02-18T20:47:55.251Z,72.60
2023-02-18T20:50:21.765Z,72.60
2023-02-18T20:52:48.230Z,72.50
2023-02-18T20:55:14.687Z,72.50
2023-02-18T20:57:41.163Z,72.60
2023-02-18T21:00:07.626Z,72.60
2023-02-18T21:02:34.337Z,72.60
2023-02-18T21:05:00.861Z,72.50
2023-02-18T21:07:29.817Z,72.60
2023-02-18T21:09:56.310Z,72.50
2023-02-18T21:12:22.789Z,72.50
2023-02-18T21:14:49.278Z,72.60
2023-02-18T21:17:17.819Z,72.60
2023-02-18T21:19:44.312Z,72.60
2023-02-18T21:22:10.774Z,72.70
2023-02-18T21:24:37.230Z,72.70
2023-02-18T21:27:03.699Z,72.60
2023-02-18T21:29:30.164Z,72.60
2023-02-18T21:31:56.746Z,72.60
2023-02-18T21:34:23.259Z,72.70
2023-02-18T21:36:49.740Z,72.60
2023-02-18T21:39:16.224Z,72.60
2023-02-18T21:41:42.698Z,72.50
2023-02-18T21:44:09.209Z,72.50
2023-02-18T21:46:35.725Z,72.50
2023-02-18T21:49:02.297Z,72.60
2023-02-18T21:51:28.821Z,72.60
2023-02-18T21:53:55.309Z,72.60
2023-02-18T21:56:21.784Z,72.60
2023-02-18T21:58:48.255Z,72.60
2023-02-18T22:01:14.769Z,72.60
2023-02-18T22:03:41.271Z,72.60
2023-02-18T22:06:11.830Z,72.60
2023-02-18T22:08:38.313Z,72.60
2023-02-18T22:11:04.803Z,72.50
2023-02-18T22:13:31.272Z,72.60
2023-02-18T22:15:57.855Z,72.60
2023-02-18T22:18:24.406Z,72.60
2023-02-18T22:20:50.898Z,72.60
2023-02-18T22:23:17.376Z,72.60
2023-02-18T22:25:43.856Z,72.50
2023-02-18T22:28:10.335Z,72.60
2023-02-18T22:30:36.829Z,72.60
2023-02-18T22:33:03.291Z,72.60
2023-02-18T22:35:29.781Z,72.60
2023-02-18T22:37:56.241Z,72.60
2023-02-18T22:40:22.719Z,72.60
2023-02-18T22:42:49.205Z,72.60
2023-02-18T22:45:17.838Z,72.60
2023-02-18T22:47:47.887Z,72.70
2023-02-18T22:50:14.355Z,72.60
2023-02-18T22:52:40.774Z,72.60
2023-02-18T22:55:07.257Z,72.70
2023-02-18T22:57:33.728Z,72.60
2023-02-18T23:00:00.217Z,72.60
2023-02-18T23:02:26.701Z,72.60
2023-02-18T23:04:53.179Z,72.60
2023-02-18T23:07:19.646Z,72.60
2023-02-18T23:09:46.120Z,72.50
2023-02-18T23:12:17.899Z,72.50
2023-02-18T23:14:44.379Z,72.60
2023-02-18T23:17:10.857Z,72.60
2023-02-18T23:19:37.340Z,72.70
2023-02-18T23:22:03.834Z,72.50
2023-02-18T23:24:30.317Z,72.60
2023-02-18T23:26:56.800Z,72.60
2023-02-18T23:29:23.277Z,72.60
2023-02-18T23:31:49.870Z,72.60
2023-02-18T23:34:16.374Z,72.60
2023-02-18T23:36:42.869Z,72.60
2023-02-18T23:39:09.351Z,72.60
2023-02-18T23:41:35.845Z,72.70
2023-02-18T23:44:02.331Z,72.70
2023-02-18T23:46:28.798Z,72.60
2023-02-18T23:48:55.279Z,72.70
2023-02-18T23:51:21.729Z,72.70
2023-02-18T23:53:48.195Z,72.70
2023-02-18T23:56:14.690Z,72.70
2023-02-18T23:58:41.172Z,72.80
